sensor_id;sensor_type;location;lat;lon;timestamp;P1;durP1;ratioP1;P2;durP2;ratioP2
39890;SDS011;25564;53.312;9.790;2024-03-23T00:54:33;438.43;;;400.57;;
39890;SDS011;25564;53.312;9.790;2024-03-23T00:57:05;471.13;;;433.77;;
39890;SDS011;25564;53.312;9.790;2024-03-23T00:59:36;467.70;;;426.50;;
39890;SDS011;25564;53.312;9.790;2024-03-23T01:02:06;426.80;;;390.70;;
39890;SDS011;25564;53.312;9.790;2024-03-23T01:04:37;492.83;;;449.60;;
39890;SDS011;25564;53.312;9.790;2024-03-23T01:07:08;429.43;;;391.50;;
39890;SDS011;25564;53.312;9.790;2024-03-23T01:09:38;413.97;;;378.00;;
39890;SDS011;25564;53.312;9.790;2024-03-23T01:12:09;407.40;;;372.67;;
39890;SDS011;25564;53.312;9.790;2024-03-23T01:14:39;431.63;;;394.53;;
39890;SDS011;25564;53.312;9.790;2024-03-23T01:17:10;456.47;;;417.43;;
39890;SDS011;25564;53.312;9.790;2024-03-23T01:19:40;467.33;;;428.13;;
39890;SDS011;25564;53.312;9.790;2024-03-23T01:22:12;539.53;;;496.40;;
39890;SDS011;25564;53.312;9.790;2024-03-23T01:24:43;487.80;;;446.67;;
39890;SDS011;25564;53.312;9.790;2024-03-23T01:27:13;496.67;;;453.83;;
39890;SDS011;25564;53.312;9.790;2024-03-23T01:29:44;518.70;;;475.57;;
39890;SDS011;25564;53.312;9.790;2024-03-23T01:32:15;459.53;;;419.43;;
39890;SDS011;25564;53.312;9.790;2024-03-23T01:34:47;408.17;;;371.47;;
39890;SDS011;25564;53.312;9.790;2024-03-23T01:37:17;487.90;;;445.63;;
39890;SDS011;25564;53.312;9.790;2024-03-23T01:39:49;488.97;;;448.17;;
39890;SDS011;25564;53.312;9.790;2024-03-23T01:42:19;454.17;;;416.07;;
39890;SDS011;25564;53.312;9.790;2024-03-23T01:44:52;462.93;;;423.20;;
39890;SDS011;25564;53.312;9.790;2024-03-23T01:47:22;442.37;;;403.50;;
39890;SDS011;25564;53.312;9.790;2024-03-23T01:49:53;455.87;;;415.30;;
39890;SDS011;25564;53.312;9.790;2024-03-23T01:52:25;465.10;;;425.67;;
39890;SDS011;25564;53.312;9.790;2024-03-23T01:54:57;415.67;;;379.77;;
39890;SDS011;25564;53.312;9.790;2024-03-23T01:57:28;458.17;;;420.23;;
39890;SDS011;25564;53.312;9.790;2024-03-23T01:59:58;489.93;;;447.70;;
39890;SDS011;25564;53.312;9.790;2024-03-23T02:02:29;485.67;;;443.73;;
39890;SDS011;25564;53.312;9.790;2024-03-23T02:04:59;462.77;;;421.40;;
39890;SDS011;25564;53.312;9.790;2024-03-23T02:07:30;443.97;;;407.93;;
39890;SDS011;25564;53.312;9.790;2024-03-23T02:10:01;498.30;;;455.93;;
39890;SDS011;25564;53.312;9.790;2024-03-23T02:12:32;500.67;;;459.33;;
39890;SDS011;25564;53.312;9.790;2024-03-23T02:15:03;456.43;;;417.53;;
39890;SDS011;25564;53.312;9.790;2024-03-23T02:17:35;504.53;;;462.07;;
39890;SDS011;25564;53.312;9.790;2024-03-23T02:20:06;517.60;;;475.90;;
39890;SDS011;25564;53.312;9.790;2024-03-23T02:22:38;480.93;;;442.90;;
39890;SDS011;25564;53.312;9.790;2024-03-23T02:25:09;445.20;;;408.97;;
39890;SDS011;25564;53.312;9.790;2024-03-23T02:27:40;476.40;;;435.93;;
39890;SDS011;25564;53.312;9.790;2024-03-23T02:30:11;492.00;;;450.77;;
39890;SDS011;25564;53.312;9.790;2024-03-23T02:32:42;514.47;;;471.57;;
39890;SDS011;25564;53.312;9.790;2024-03-23T02:35:12;509.00;;;466.67;;
39890;SDS011;25564;53.312;9.790;2024-03-23T02:37:46;444.73;;;406.93;;
39890;SDS011;25564;53.312;9.790;2024-03-23T02:40:18;402.13;;;367.97;;
39890;SDS011;25564;53.312;9.790;2024-03-23T02:42:50;513.93;;;471.50;;
39890;SDS011;25564;53.312;9.790;2024-03-23T02:45:20;431.20;;;391.90;;
39890;SDS011;25564;53.312;9.790;2024-03-23T02:47:52;503.57;;;461.87;;
39890;SDS011;25564;53.312;9.790;2024-03-23T02:50:22;446.17;;;406.70;;
39890;SDS011;25564;53.312;9.790;2024-03-23T02:52:53;560.97;;;517.87;;
39890;SDS011;25564;53.312;9.790;2024-03-23T02:55:24;477.07;;;439.13;;
39890;SDS011;25564;53.312;9.790;2024-03-23T02:57:54;458.20;;;418.50;;
39890;SDS011;25564;53.312;9.790;2024-03-23T03:00:26;469.60;;;429.97;;
39890;SDS011;25564;53.312;9.790;2024-03-23T03:02:58;456.93;;;419.93;;
39890;SDS011;25564;53.312;9.790;2024-03-23T03:05:29;494.43;;;452.53;;
39890;SDS011;25564;53.312;9.790;2024-03-23T03:08:00;482.53;;;443.00;;
39890;SDS011;25564;53.312;9.790;2024-03-23T03:10:30;512.50;;;468.73;;
39890;SDS011;25564;53.312;9.790;2024-03-23T03:13:05;510.80;;;467.50;;
39890;SDS011;25564;53.312;9.790;2024-03-23T03:15:37;493.50;;;451.90;;
39890;SDS011;25564;53.312;9.790;2024-03-23T03:18:08;473.43;;;432.80;;
39890;SDS011;25564;53.312;9.790;2024-03-23T03:20:39;479.30;;;441.23;;
39890;SDS011;25564;53.312;9.790;2024-03-23T03:23:10;504.60;;;461.23;;
39890;SDS011;25564;53.312;9.790;2024-03-23T03:25:41;486.70;;;446.53;;
39890;SDS011;25564;53.312;9.790;2024-03-23T03:28:11;527.77;;;482.67;;
39890;SDS011;25564;53.312;9.790;2024-03-23T03:30:42;478.73;;;438.77;;
39890;SDS011;25564;53.312;9.790;2024-03-23T03:33:13;504.93;;;461.73;;
39890;SDS011;25564;53.312;9.790;2024-03-23T03:35:44;483.40;;;443.00;;
39890;SDS011;25564;53.312;9.790;2024-03-23T03:38:15;510.97;;;468.57;;
39890;SDS011;25564;53.312;9.790;2024-03-23T03:40:46;489.67;;;449.17;;
39890;SDS011;25564;53.312;9.790;2024-03-23T03:43:17;505.00;;;464.23;;
39890;SDS011;25564;53.312;9.790;2024-03-23T03:45:51;521.90;;;480.43;;
39890;SDS011;25564;53.312;9.790;2024-03-23T03:48:23;504.57;;;460.70;;
39890;SDS011;25564;53.312;9.790;2024-03-23T03:50:54;558.60;;;514.23;;
39890;SDS011;25564;53.312;9.790;2024-03-23T03:53:24;457.70;;;419.50;;
39890;SDS011;25564;53.312;9.790;2024-03-23T03:55:55;482.90;;;441.63;;
39890;SDS011;25564;53.312;9.790;2024-03-23T03:58:25;457.40;;;418.73;;
39890;SDS011;25564;53.312;9.790;2024-03-23T04:00:56;471.77;;;431.13;;
39890;SDS011;25564;53.312;9.790;2024-03-23T04:03:26;474.40;;;434.90;;
39890;SDS011;25564;53.312;9.790;2024-03-23T04:05:57;466.37;;;427.73;;
39890;SDS011;25564;53.312;9.790;2024-03-23T04:08:27;519.87;;;476.80;;
39890;SDS011;25564;53.312;9.790;2024-03-23T04:10:58;436.30;;;398.73;;
39890;SDS011;25564;53.312;9.790;2024-03-23T04:13:29;527.97;;;485.20;;
39890;SDS011;25564;53.312;9.790;2024-03-23T04:16:00;492.03;;;451.03;;
39890;SDS011;25564;53.312;9.790;2024-03-23T04:18:30;515.97;;;472.03;;
39890;SDS011;25564;53.312;9.790;2024-03-23T04:21:01;495.73;;;455.20;;
39890;SDS011;25564;53.312;9.790;2024-03-23T04:23:32;488.03;;;446.57;;
39890;SDS011;25564;53.312;9.790;2024-03-23T04:26:03;476.43;;;437.23;;
39890;SDS011;25564;53.312;9.790;2024-03-23T04:28:36;492.70;;;451.57;;
39890;SDS011;25564;53.312;9.790;2024-03-23T04:31:07;457.17;;;419.53;;
39890;SDS011;25564;53.312;9.790;2024-03-23T04:33:38;518.37;;;475.27;;
39890;SDS011;25564;53.312;9.790;2024-03-23T04:36:09;488.90;;;448.40;;
39890;SDS011;25564;53.312;9.790;2024-03-23T04:38:42;488.13;;;448.50;;
39890;SDS011;25564;53.312;9.790;2024-03-23T04:41:13;500.63;;;460.03;;
39890;SDS011;25564;53.312;9.790;2024-03-23T04:43:43;471.53;;;431.73;;
39890;SDS011;25564;53.312;9.790;2024-03-23T04:46:14;544.53;;;500.13;;
39890;SDS011;25564;53.312;9.790;2024-03-23T04:48:46;467.37;;;428.03;;
39890;SDS011;25564;53.312;9.790;2024-03-23T04:51:22;496.53;;;454.63;;
39890;SDS011;25564;53.312;9.790;2024-03-23T04:53:54;460.77;;;424.33;;
39890;SDS011;25564;53.312;9.790;2024-03-23T04:56:25;467.20;;;427.50;;
39890;SDS011;25564;53.312;9.790;2024-03-23T04:58:56;444.40;;;407.03;;
39890;SDS011;25564;53.312;9.790;2024-03-23T05:01:31;475.00;;;435.37;;
39890;SDS011;25564;53.312;9.790;2024-03-23T05:04:02;502.70;;;461.10;;
39890;SDS011;25564;53.312;9.790;2024-03-23T05:06:33;482.23;;;440.63;;
39890;SDS011;25564;53.312;9.790;2024-03-23T05:09:05;424.67;;;389.30;;
39890;SDS011;25564;53.312;9.790;2024-03-23T05:11:37;528.70;;;484.03;;
39890;SDS011;25564;53.312;9.790;2024-03-23T05:14:08;462.77;;;424.47;;
39890;SDS011;25564;53.312;9.790;2024-03-23T05:16:39;510.50;;;469.23;;
39890;SDS011;25564;53.312;9.790;2024-03-23T05:19:10;490.13;;;448.07;;
39890;SDS011;25564;53.312;9.790;2024-03-23T05:21:40;521.40;;;481.13;;
39890;SDS011;25564;53.312;9.790;2024-03-23T05:24:11;463.50;;;424.93;;
39890;SDS011;25564;53.312;9.790;2024-03-23T05:26:42;479.40;;;442.37;;
39890;SDS011;25564;53.312;9.790;2024-03-23T05:29:13;497.90;;;454.73;;
39890;SDS011;25564;53.312;9.790;2024-03-23T05:31:43;538.10;;;493.30;;
39890;SDS011;25564;53.312;9.790;2024-03-23T05:34:14;512.87;;;470.50;;
39890;SDS011;25564;53.312;9.790;2024-03-23T05:36:45;532.07;;;487.33;;
39890;SDS011;25564;53.312;9.790;2024-03-23T05:39:15;445.83;;;409.40;;
39890;SDS011;25564;53.312;9.790;2024-03-23T05:41:46;477.60;;;437.53;;
39890;SDS011;25564;53.312;9.790;2024-03-23T05:44:19;485.70;;;445.13;;
39890;SDS011;25564;53.312;9.790;2024-03-23T05:46:49;422.40;;;388.50;;
39890;SDS011;25564;53.312;9.790;2024-03-23T05:49:21;457.87;;;417.80;;
39890;SDS011;25564;53.312;9.790;2024-03-23T05:51:51;501.97;;;459.33;;
39890;SDS011;25564;53.312;9.790;2024-03-23T05:54:22;452.07;;;414.60;;
39890;SDS011;25564;53.312;9.790;2024-03-23T05:56:56;548.83;;;505.87;;
39890;SDS011;25564;53.312;9.790;2024-03-23T05:59:27;501.77;;;460.80;;
39890;SDS011;25564;53.312;9.790;2024-03-23T06:02:00;477.83;;;438.37;;
39890;SDS011;25564;53.312;9.790;2024-03-23T06:04:34;490.13;;;449.30;;
39890;SDS011;25564;53.312;9.790;2024-03-23T06:07:05;499.23;;;458.00;;
39890;SDS011;25564;53.312;9.790;2024-03-23T06:09:44;462.47;;;423.17;;
39890;SDS011;25564;53.312;9.790;2024-03-23T06:12:14;509.27;;;467.53;;
39890;SDS011;25564;53.312;9.790;2024-03-23T06:14:45;480.20;;;440.87;;
39890;SDS011;25564;53.312;9.790;2024-03-23T06:17:15;521.00;;;479.60;;
39890;SDS011;25564;53.312;9.790;2024-03-23T06:19:46;487.00;;;447.20;;
39890;SDS011;25564;53.312;9.790;2024-03-23T06:22:18;442.17;;;402.37;;
39890;SDS011;25564;53.312;9.790;2024-03-23T06:24:48;478.03;;;439.80;;
39890;SDS011;25564;53.312;9.790;2024-03-23T06:27:19;500.07;;;458.80;;
39890;SDS011;25564;53.312;9.790;2024-03-23T06:29:51;449.47;;;412.23;;
39890;SDS011;25564;53.312;9.790;2024-03-23T06:32:22;483.73;;;441.23;;
39890;SDS011;25564;53.312;9.790;2024-03-23T06:34:53;439.17;;;400.70;;
39890;SDS011;25564;53.312;9.790;2024-03-23T06:37:25;487.30;;;445.83;;
39890;SDS011;25564;53.312;9.790;2024-03-23T06:39:56;461.53;;;420.63;;
39890;SDS011;25564;53.312;9.790;2024-03-23T06:42:27;424.20;;;385.77;;
39890;SDS011;25564;53.312;9.790;2024-03-23T06:44:58;438.00;;;398.73;;
39890;SDS011;25564;53.312;9.790;2024-03-23T06:47:29;465.30;;;425.07;;
39890;SDS011;25564;53.312;9.790;2024-03-23T06:49:59;458.57;;;420.10;;
39890;SDS011;25564;53.312;9.790;2024-03-23T06:52:33;420.10;;;382.73;;
39890;SDS011;25564;53.312;9.790;2024-03-23T06:55:04;473.47;;;430.43;;
39890;SDS011;25564;53.312;9.790;2024-03-23T06:57:36;495.30;;;453.10;;
39890;SDS011;25564;53.312;9.790;2024-03-23T07:00:08;462.97;;;423.33;;
39890;SDS011;25564;53.312;9.790;2024-03-23T07:02:40;432.40;;;393.40;;
39890;SDS011;25564;53.312;9.790;2024-03-23T07:05:10;460.53;;;419.13;;
39890;SDS011;25564;53.312;9.790;2024-03-23T07:07:41;528.57;;;477.73;;
39890;SDS011;25564;53.312;9.790;2024-03-23T07:10:12;404.87;;;368.77;;
39890;SDS011;25564;53.312;9.790;2024-03-23T07:12:42;368.87;;;334.67;;
39890;SDS011;25564;53.312;9.790;2024-03-23T07:15:13;403.40;;;364.53;;
39890;SDS011;25564;53.312;9.790;2024-03-23T07:17:46;455.10;;;414.17;;
39890;SDS011;25564;53.312;9.790;2024-03-23T07:20:17;453.63;;;407.03;;
39890;SDS011;25564;53.312;9.790;2024-03-23T07:22:48;391.57;;;355.20;;
39890;SDS011;25564;53.312;9.790;2024-03-23T07:25:20;415.53;;;376.87;;
39890;SDS011;25564;53.312;9.790;2024-03-23T07:27:53;487.00;;;444.20;;
39890;SDS011;25564;53.312;9.790;2024-03-23T07:30:24;374.90;;;342.03;;
39890;SDS011;25564;53.312;9.790;2024-03-23T07:32:54;387.80;;;353.73;;
39890;SDS011;25564;53.312;9.790;2024-03-23T07:35:25;313.33;;;284.90;;
39890;SDS011;25564;53.312;9.790;2024-03-23T07:37:56;423.63;;;383.03;;
39890;SDS011;25564;53.312;9.790;2024-03-23T07:40:26;292.20;;;263.70;;
39890;SDS011;25564;53.312;9.790;2024-03-23T07:42:57;333.93;;;301.63;;
39890;SDS011;25564;53.312;9.790;2024-03-23T07:45:27;502.10;;;407.97;;
39890;SDS011;25564;53.312;9.790;2024-03-23T07:47:58;349.97;;;316.47;;
39890;SDS011;25564;53.312;9.790;2024-03-23T07:50:29;365.70;;;330.90;;
39890;SDS011;25564;53.312;9.790;2024-03-23T07:52:59;317.63;;;287.93;;
39890;SDS011;25564;53.312;9.790;2024-03-23T07:55:30;361.40;;;324.23;;
39890;SDS011;25564;53.312;9.790;2024-03-23T07:58:01;325.60;;;292.83;;
39890;SDS011;25564;53.312;9.790;2024-03-23T08:00:31;411.73;;;369.73;;
39890;SDS011;25564;53.312;9.790;2024-03-23T08:03:03;347.73;;;313.77;;
39890;SDS011;25564;53.312;9.790;2024-03-23T08:05:34;295.33;;;266.97;;
39890;SDS011;25564;53.312;9.790;2024-03-23T08:08:05;379.63;;;299.77;;
39890;SDS011;25564;53.312;9.790;2024-03-23T08:10:35;406.93;;;366.63;;
39890;SDS011;25564;53.312;9.790;2024-03-23T08:13:06;261.63;;;235.80;;
39890;SDS011;25564;53.312;9.790;2024-03-23T08:15:37;375.60;;;337.90;;
39890;SDS011;25564;53.312;9.790;2024-03-23T08:18:08;386.80;;;348.50;;
39890;SDS011;25564;53.312;9.790;2024-03-23T08:20:39;291.37;;;262.40;;
39890;SDS011;25564;53.312;9.790;2024-03-23T08:23:09;287.90;;;257.27;;
39890;SDS011;25564;53.312;9.790;2024-03-23T08:25:40;261.73;;;233.67;;
39890;SDS011;25564;53.312;9.790;2024-03-23T08:28:10;280.40;;;251.00;;
39890;SDS011;25564;53.312;9.790;2024-03-23T08:30:41;284.37;;;255.97;;
39890;SDS011;25564;53.312;9.790;2024-03-23T08:33:12;267.00;;;213.17;;
39890;SDS011;25564;53.312;9.790;2024-03-23T08:35:42;309.37;;;257.27;;
39890;SDS011;25564;53.312;9.790;2024-03-23T08:38:13;302.10;;;271.80;;
39890;SDS011;25564;53.312;9.790;2024-03-23T08:40:43;314.43;;;275.10;;
39890;SDS011;25564;53.312;9.790;2024-03-23T08:43:14;302.87;;;271.03;;
39890;SDS011;25564;53.312;9.790;2024-03-23T08:45:44;299.27;;;266.23;;
39890;SDS011;25564;53.312;9.790;2024-03-23T08:48:15;291.33;;;246.23;;
39890;SDS011;25564;53.312;9.790;2024-03-23T08:50:47;235.67;;;210.90;;
39890;SDS011;25564;53.312;9.790;2024-03-23T08:53:28;453.77;;;406.97;;
39890;SDS011;25564;53.312;9.790;2024-03-23T08:56:02;329.93;;;295.00;;
39890;SDS011;25564;53.312;9.790;2024-03-23T08:58:34;485.63;;;383.80;;
39890;SDS011;25564;53.312;9.790;2024-03-23T09:01:07;462.77;;;402.90;;
39890;SDS011;25564;53.312;9.790;2024-03-23T09:03:40;419.60;;;379.83;;
39890;SDS011;25564;53.312;9.790;2024-03-23T09:06:13;438.07;;;396.10;;
39890;SDS011;25564;53.312;9.790;2024-03-23T09:08:45;353.83;;;319.87;;
39890;SDS011;25564;53.312;9.790;2024-03-23T09:11:15;368.93;;;331.33;;
39890;SDS011;25564;53.312;9.790;2024-03-23T09:13:46;353.47;;;316.57;;
39890;SDS011;25564;53.312;9.790;2024-03-23T09:16:16;398.40;;;360.37;;
39890;SDS011;25564;53.312;9.790;2024-03-23T09:18:47;413.93;;;368.87;;
39890;SDS011;25564;53.312;9.790;2024-03-23T09:21:18;450.43;;;405.57;;
39890;SDS011;25564;53.312;9.790;2024-03-23T09:23:49;454.83;;;407.20;;
39890;SDS011;25564;53.312;9.790;2024-03-23T09:26:19;452.13;;;405.63;;
39890;SDS011;25564;53.312;9.790;2024-03-23T09:28:50;527.80;;;474.47;;
39890;SDS011;25564;53.312;9.790;2024-03-23T09:31:20;525.73;;;475.33;;
39890;SDS011;25564;53.312;9.790;2024-03-23T09:33:52;544.50;;;492.43;;
39890;SDS011;25564;53.312;9.790;2024-03-23T09:36:23;476.13;;;428.73;;
39890;SDS011;25564;53.312;9.790;2024-03-23T09:38:53;579.37;;;519.33;;
39890;SDS011;25564;53.312;9.790;2024-03-23T09:41:24;501.63;;;453.60;;
39890;SDS011;25564;53.312;9.790;2024-03-23T09:43:54;504.30;;;457.27;;
39890;SDS011;25564;53.312;9.790;2024-03-23T09:46:25;495.10;;;447.47;;
39890;SDS011;25564;53.312;9.790;2024-03-23T09:48:55;602.57;;;550.20;;
39890;SDS011;25564;53.312;9.790;2024-03-23T09:51:26;566.10;;;514.97;;
39890;SDS011;25564;53.312;9.790;2024-03-23T09:53:57;579.83;;;528.90;;
39890;SDS011;25564;53.312;9.790;2024-03-23T09:56:27;494.40;;;446.70;;
39890;SDS011;25564;53.312;9.790;2024-03-23T09:59:01;506.13;;;460.47;;
39890;SDS011;25564;53.312;9.790;2024-03-23T10:01:32;524.37;;;476.30;;
39890;SDS011;25564;53.312;9.790;2024-03-23T10:04:04;517.80;;;470.97;;
39890;SDS011;25564;53.312;9.790;2024-03-23T10:06:35;430.77;;;385.43;;
39890;SDS011;25564;53.312;9.790;2024-03-23T10:09:27;515.80;;;469.00;;
39890;SDS011;25564;53.312;9.790;2024-03-23T10:12:07;572.43;;;519.53;;
39890;SDS011;25564;53.312;9.790;2024-03-23T10:14:44;502.33;;;458.57;;
39890;SDS011;25564;53.312;9.790;2024-03-23T10:17:18;528.53;;;479.70;;
39890;SDS011;25564;53.312;9.790;2024-03-23T10:19:50;616.67;;;561.27;;
39890;SDS011;25564;53.312;9.790;2024-03-23T10:22:26;607.90;;;541.70;;
39890;SDS011;25564;53.312;9.790;2024-03-23T10:24:57;608.43;;;554.57;;
39890;SDS011;25564;53.312;9.790;2024-03-23T10:27:38;575.50;;;522.30;;
39890;SDS011;25564;53.312;9.790;2024-03-23T10:30:13;556.13;;;505.13;;
39890;SDS011;25564;53.312;9.790;2024-03-23T10:32:47;618.13;;;557.30;;
39890;SDS011;25564;53.312;9.790;2024-03-23T10:35:20;629.37;;;567.73;;
39890;SDS011;25564;53.312;9.790;2024-03-23T10:37:52;576.93;;;517.33;;
39890;SDS011;25564;53.312;9.790;2024-03-23T10:40:25;554.17;;;503.00;;
39890;SDS011;25564;53.312;9.790;2024-03-23T10:42:57;575.37;;;518.47;;
39890;SDS011;25564;53.312;9.790;2024-03-23T10:45:29;562.60;;;512.50;;
39890;SDS011;25564;53.312;9.790;2024-03-23T10:48:00;603.10;;;547.83;;
39890;SDS011;25564;53.312;9.790;2024-03-23T10:50:32;617.43;;;559.10;;
39890;SDS011;25564;53.312;9.790;2024-03-23T10:53:03;583.83;;;532.13;;
39890;SDS011;25564;53.312;9.790;2024-03-23T10:55:34;559.80;;;508.13;;
39890;SDS011;25564;53.312;9.790;2024-03-23T10:58:05;561.83;;;512.10;;
39890;SDS011;25564;53.312;9.790;2024-03-23T11:00:36;503.40;;;456.67;;
39890;SDS011;25564;53.312;9.790;2024-03-23T11:06:00;533.37;;;481.07;;
39890;SDS011;25564;53.312;9.790;2024-03-23T11:11:13;557.53;;;504.73;;
39890;SDS011;25564;53.312;9.790;2024-03-23T11:13:44;518.30;;;461.57;;
39890;SDS011;25564;53.312;9.790;2024-03-23T11:16:25;562.67;;;509.67;;
39890;SDS011;25564;53.312;9.790;2024-03-23T11:19:33;566.07;;;512.57;;
39890;SDS011;25564;53.312;9.790;2024-03-23T11:22:05;479.33;;;410.03;;
39890;SDS011;25564;53.312;9.790;2024-03-23T11:24:36;513.93;;;444.83;;
39890;SDS011;25564;53.312;9.790;2024-03-23T11:27:16;574.37;;;509.10;;
39890;SDS011;25564;53.312;9.790;2024-03-23T11:29:47;658.90;;;599.63;;
39890;SDS011;25564;53.312;9.790;2024-03-23T11:32:17;627.13;;;569.13;;
39890;SDS011;25564;53.312;9.790;2024-03-23T11:34:48;602.53;;;545.80;;
39890;SDS011;25564;53.312;9.790;2024-03-23T11:37:18;627.27;;;568.53;;
39890;SDS011;25564;53.312;9.790;2024-03-23T11:39:49;635.77;;;573.80;;
39890;SDS011;25564;53.312;9.790;2024-03-23T11:42:20;664.63;;;597.17;;
39890;SDS011;25564;53.312;9.790;2024-03-23T11:44:52;638.40;;;579.17;;
39890;SDS011;25564;53.312;9.790;2024-03-23T11:47:22;661.10;;;600.27;;
39890;SDS011;25564;53.312;9.790;2024-03-23T11:49:53;644.57;;;580.83;;
39890;SDS011;25564;53.312;9.790;2024-03-23T11:52:23;637.80;;;576.67;;
39890;SDS011;25564;53.312;9.790;2024-03-23T11:55:04;665.03;;;607.07;;
39890;SDS011;25564;53.312;9.790;2024-03-23T11:57:36;596.17;;;529.73;;
39890;SDS011;25564;53.312;9.790;2024-03-23T12:00:20;667.50;;;603.50;;
39890;SDS011;25564;53.312;9.790;2024-03-23T12:02:51;647.50;;;588.23;;
39890;SDS011;25564;53.312;9.790;2024-03-23T12:05:23;645.83;;;583.00;;
39890;SDS011;25564;53.312;9.790;2024-03-23T12:07:53;708.00;;;630.87;;
39890;SDS011;25564;53.312;9.790;2024-03-23T12:10:24;672.10;;;610.43;;
39890;SDS011;25564;53.312;9.790;2024-03-23T12:13:01;681.37;;;612.97;;
39890;SDS011;25564;53.312;9.790;2024-03-23T12:15:31;598.47;;;540.97;;
39890;SDS011;25564;53.312;9.790;2024-03-23T12:18:08;629.73;;;571.90;;
39890;SDS011;25564;53.312;9.790;2024-03-23T12:20:40;631.97;;;568.17;;
39890;SDS011;25564;53.312;9.790;2024-03-23T12:23:12;631.40;;;575.33;;
39890;SDS011;25564;53.312;9.790;2024-03-23T12:25:44;673.30;;;612.27;;
39890;SDS011;25564;53.312;9.790;2024-03-23T12:28:15;690.97;;;619.43;;
39890;SDS011;25564;53.312;9.790;2024-03-23T12:30:45;685.40;;;623.63;;
39890;SDS011;25564;53.312;9.790;2024-03-23T12:33:16;653.67;;;596.57;;
39890;SDS011;25564;53.312;9.790;2024-03-23T12:35:50;625.17;;;570.43;;
39890;SDS011;25564;53.312;9.790;2024-03-23T12:38:21;625.47;;;568.83;;
39890;SDS011;25564;53.312;9.790;2024-03-23T12:40:51;774.10;;;608.20;;
39890;SDS011;25564;53.312;9.790;2024-03-23T12:43:22;657.10;;;594.23;;
39890;SDS011;25564;53.312;9.790;2024-03-23T12:45:52;702.10;;;631.50;;
39890;SDS011;25564;53.312;9.790;2024-03-23T12:48:24;652.80;;;583.03;;
39890;SDS011;25564;53.312;9.790;2024-03-23T12:50:54;643.73;;;580.57;;
39890;SDS011;25564;53.312;9.790;2024-03-23T12:53:26;628.90;;;574.47;;
39890;SDS011;25564;53.312;9.790;2024-03-23T12:55:57;642.37;;;586.90;;
39890;SDS011;25564;53.312;9.790;2024-03-23T12:58:27;628.60;;;573.33;;
39890;SDS011;25564;53.312;9.790;2024-03-23T13:00:58;561.97;;;514.20;;
39890;SDS011;25564;53.312;9.790;2024-03-23T13:03:29;537.20;;;491.87;;
39890;SDS011;25564;53.312;9.790;2024-03-23T13:05:59;660.37;;;592.63;;
39890;SDS011;25564;53.312;9.790;2024-03-23T13:08:30;562.43;;;497.47;;
39890;SDS011;25564;53.312;9.790;2024-03-23T13:11:00;674.37;;;534.40;;
39890;SDS011;25564;53.312;9.790;2024-03-23T13:13:31;518.70;;;439.60;;
39890;SDS011;25564;53.312;9.790;2024-03-23T13:16:03;574.60;;;523.07;;
39890;SDS011;25564;53.312;9.790;2024-03-23T13:18:35;679.47;;;514.40;;
39890;SDS011;25564;53.312;9.790;2024-03-23T13:21:06;539.17;;;490.30;;
39890;SDS011;25564;53.312;9.790;2024-03-23T13:23:36;588.17;;;538.13;;
39890;SDS011;25564;53.312;9.790;2024-03-23T13:26:08;512.57;;;462.03;;
39890;SDS011;25564;53.312;9.790;2024-03-23T13:28:38;531.50;;;486.50;;
39890;SDS011;25564;53.312;9.790;2024-03-23T13:31:09;505.83;;;464.53;;
39890;SDS011;25564;53.312;9.790;2024-03-23T13:33:39;645.53;;;583.97;;
39890;SDS011;25564;53.312;9.790;2024-03-23T13:36:12;511.03;;;469.77;;
39890;SDS011;25564;53.312;9.790;2024-03-23T13:38:43;513.67;;;472.80;;
39890;SDS011;25564;53.312;9.790;2024-03-23T13:41:14;500.90;;;463.10;;
39890;SDS011;25564;53.312;9.790;2024-03-23T13:43:44;533.40;;;489.80;;
39890;SDS011;25564;53.312;9.790;2024-03-23T13:46:15;535.73;;;489.70;;
39890;SDS011;25564;53.312;9.790;2024-03-23T13:48:46;479.70;;;440.60;;
39890;SDS011;25564;53.312;9.790;2024-03-23T13:51:22;518.23;;;475.90;;
39890;SDS011;25564;53.312;9.790;2024-03-23T13:53:54;518.37;;;472.53;;
39890;SDS011;25564;53.312;9.790;2024-03-23T13:56:29;463.50;;;426.57;;
39890;SDS011;25564;53.312;9.790;2024-03-23T13:59:01;446.47;;;411.17;;
39890;SDS011;25564;53.312;9.790;2024-03-23T14:01:31;499.03;;;457.70;;
39890;SDS011;25564;53.312;9.790;2024-03-23T14:04:04;463.60;;;424.53;;
39890;SDS011;25564;53.312;9.790;2024-03-23T14:06:34;514.33;;;472.83;;
39890;SDS011;25564;53.312;9.790;2024-03-23T14:09:05;497.93;;;456.10;;
39890;SDS011;25564;53.312;9.790;2024-03-23T14:11:39;573.60;;;518.60;;
39890;SDS011;25564;53.312;9.790;2024-03-23T14:14:11;505.67;;;464.53;;
39890;SDS011;25564;53.312;9.790;2024-03-23T14:16:42;501.93;;;462.13;;
39890;SDS011;25564;53.312;9.790;2024-03-23T14:19:13;516.87;;;473.60;;
39890;SDS011;25564;53.312;9.790;2024-03-23T14:21:44;532.03;;;487.80;;
39890;SDS011;25564;53.312;9.790;2024-03-23T14:24:15;514.37;;;472.23;;
39890;SDS011;25564;53.312;9.790;2024-03-23T14:26:46;535.07;;;490.10;;
39890;SDS011;25564;53.312;9.790;2024-03-23T14:29:17;562.63;;;514.43;;
39890;SDS011;25564;53.312;9.790;2024-03-23T14:31:47;488.87;;;447.73;;
39890;SDS011;25564;53.312;9.790;2024-03-23T14:34:18;505.60;;;462.07;;
39890;SDS011;25564;53.312;9.790;2024-03-23T14:36:49;546.77;;;499.50;;
39890;SDS011;25564;53.312;9.790;2024-03-23T14:39:23;514.07;;;470.87;;
39890;SDS011;25564;53.312;9.790;2024-03-23T14:41:54;555.90;;;506.10;;
39890;SDS011;25564;53.312;9.790;2024-03-23T14:44:26;538.97;;;491.53;;
39890;SDS011;25564;53.312;9.790;2024-03-23T14:46:59;490.97;;;449.53;;
39890;SDS011;25564;53.312;9.790;2024-03-23T14:49:30;494.00;;;449.80;;
39890;SDS011;25564;53.312;9.790;2024-03-23T14:52:01;513.30;;;469.43;;
39890;SDS011;25564;53.312;9.790;2024-03-23T14:54:31;501.93;;;458.90;;
39890;SDS011;25564;53.312;9.790;2024-03-23T14:57:02;528.40;;;485.23;;
39890;SDS011;25564;53.312;9.790;2024-03-23T14:59:33;557.73;;;509.33;;
39890;SDS011;25564;53.312;9.790;2024-03-23T15:02:04;467.50;;;419.03;;
39890;SDS011;25564;53.312;9.790;2024-03-23T15:04:36;605.13;;;552.90;;
39890;SDS011;25564;53.312;9.790;2024-03-23T15:07:06;585.20;;;534.17;;
39890;SDS011;25564;53.312;9.790;2024-03-23T15:09:37;578.27;;;526.90;;
39890;SDS011;25564;53.312;9.790;2024-03-23T15:12:07;559.07;;;512.47;;
39890;SDS011;25564;53.312;9.790;2024-03-23T15:14:38;532.40;;;485.77;;
39890;SDS011;25564;53.312;9.790;2024-03-23T15:17:09;551.80;;;504.47;;
39890;SDS011;25564;53.312;9.790;2024-03-23T15:19:40;537.10;;;491.37;;